Time;durP1;ratioP1;P1;durP2;ratioP2;P2;SDS_P1;SDS_P2;PMS_P1;PMS_P2;Temp;Humidity;BMP_temperature;BMP_pressure;BME280_temperature;BME280_humidity;BME280_pressure;Samples;Min_cycle;Max_cycle;Signal;HPM_P1;HPM_P2
2022/02/08 00:01:14;;;;;;;18.83;2.75;;;;;;;;;;6187347;23;20024;-85
2022/02/08 00:03:40;;;;;;;13.57;3.17;;;;;;;;;;6183872;23;20048;-85
2022/02/08 00:08:34;;;;;;;17.23;3.40;;;;;;;;;;6209316;23;20363;-85
2022/02/08 00:11:00;;;;;;;13.32;2.75;;;;;;;;;;6209514;23;20052;-85
2022/02/08 00:13:26;;;;;;;14.70;2.65;;;;;;;;;;6182786;23;20097;-85
2022/02/08 00:15:51;;;;;;;12.00;2.38;;;;;;;;;;6184324;23;20016;-85
2022/02/08 00:18:17;;;;;;;16.20;2.90;;;;;;;;;;6210729;23;20077;-85
2022/02/08 00:20:43;;;;;;;17.55;3.00;;;;;;;;;;6207718;23;20079;-85
2022/02/08 00:23:08;;;;;;;16.83;2.65;;;;;;;;;;6184270;23;20397;-85
2022/02/08 00:25:34;;;;;;;12.05;3.10;;;;;;;;;;6183738;23;20075;-85
2022/02/08 00:28:00;;;;;;;9.82;2.90;;;;;;;;;;6183490;23;20470;-85
2022/02/08 00:30:26;;;;;;;13.10;2.67;;;;;;;;;;6208747;23;20028;-85
2022/02/08 00:32:51;;;;;;;7.75;2.35;;;;;;;;;;6183703;23;20578;-86
2022/02/08 00:35:17;;;;;;;10.82;2.67;;;;;;;;;;6184369;23;20098;-85
2022/02/08 00:37:43;;;;;;;12.10;2.25;;;;;;;;;;6183986;23;20063;-85
2022/02/08 00:40:09;;;;;;;10.32;1.95;;;;;;;;;;6207203;23;20067;-85
2022/02/08 00:42:35;;;;;;;12.85;3.38;;;;;;;;;;6182704;23;20013;-85
2022/02/08 00:45:21;;;;;;;17.60;3.08;;;;;;;;;;6208993;23;20038;-85
2022/02/08 00:47:54;;;;;;;4.90;1.35;;;;;;;;;;6188193;23;20020;-85
2022/02/08 00:50:20;;;;;;;11.80;1.80;;;;;;;;;;6208106;23;20020;-85
2022/02/08 00:52:45;;;;;;;12.77;2.60;;;;;;;;;;6182628;23;20083;-85
2022/02/08 00:55:12;;;;;;;16.25;2.97;;;;;;;;;;6208052;23;20024;-85
2022/02/08 00:57:38;;;;;;;13.52;2.00;;;;;;;;;;6182710;23;20472;-85
2022/02/08 01:00:06;;;;;;;10.77;2.30;;;;;;;;;;6183164;23;20024;-85
2022/02/08 01:02:31;;;;;;;13.70;2.30;;;;;;;;;;6207480;23;20497;-85
2022/02/08 01:05:00;;;;;;;11.57;2.33;;;;;;;;;;6208836;23;20067;-85
2022/02/08 01:07:29;;;;;;;10.02;1.85;;;;;;;;;;6209250;23;20083;-85
2022/02/08 01:09:59;;;;;;;11.93;2.45;;;;;;;;;;6208377;23;20096;-85
2022/02/08 01:12:26;;;;;;;10.02;2.13;;;;;;;;;;6183892;23;20477;-85
2022/02/08 01:14:53;;;;;;;10.98;2.42;;;;;;;;;;6207854;23;20021;-85
2022/02/08 01:17:21;;;;;;;10.30;1.95;;;;;;;;;;6207484;23;20012;-85
2022/02/08 01:20:02;;;;;;;12.85;1.95;;;;;;;;;;6181995;23;20087;-85
2022/02/08 01:22:28;;;;;;;11.30;1.90;;;;;;;;;;6184344;23;20034;-85
2022/02/08 01:24:54;;;;;;;14.02;3.50;;;;;;;;;;6206857;23;20446;-85
2022/02/08 01:27:25;;;;;;;16.80;2.13;;;;;;;;;;6181320;23;20120;-85
2022/02/08 01:29:58;;;;;;;15.02;3.95;;;;;;;;;;6184584;23;20032;-85
2022/02/08 01:35:03;;;;;;;10.30;2.10;;;;;;;;;;6207511;23;20021;-85
2022/02/08 01:37:46;;;;;;;10.98;2.60;;;;;;;;;;6210684;23;20454;-85
2022/02/08 01:45:39;;;;;;;11.02;1.95;;;;;;;;;;6208237;23;20496;-85
2022/02/08 01:48:27;;;;;;;12.20;1.98;;;;;;;;;;6186866;23;20028;-85
2022/02/08 01:50:55;;;;;;;13.38;2.92;;;;;;;;;;6212133;23;20040;-85
2022/02/08 01:53:21;;;;;;;11.52;2.35;;;;;;;;;;6207259;23;20024;-85
2022/02/08 01:55:46;;;;;;;16.65;2.97;;;;;;;;;;6182008;23;20450;-85
2022/02/08 01:58:12;;;;;;;13.38;2.22;;;;;;;;;;6183370;23;20027;-85
2022/02/08 02:00:38;;;;;;;8.35;2.05;;;;;;;;;;6181727;23;20020;-85
2022/02/08 02:03:04;;;;;;;10.70;2.13;;;;;;;;;;6207983;23;20024;-85
2022/02/08 02:05:30;;;;;;;9.85;2.25;;;;;;;;;;6208446;23;20443;-84
2022/02/08 02:07:58;;;;;;;13.18;2.38;;;;;;;;;;6182033;23;20027;-85
2022/02/08 02:10:24;;;;;;;17.33;2.05;;;;;;;;;;6183898;23;20036;-85
2022/02/08 02:12:55;;;;;;;14.00;2.28;;;;;;;;;;6181732;23;20021;-85
2022/02/08 02:15:21;;;;;;;12.10;2.13;;;;;;;;;;6182707;23;20035;-85
2022/02/08 02:17:47;;;;;;;9.63;1.90;;;;;;;;;;6208161;23;20024;-85
2022/02/08 02:20:13;;;;;;;11.55;1.88;;;;;;;;;;6182580;23;20092;-85
2022/02/08 02:22:39;;;;;;;12.00;2.55;;;;;;;;;;6181339;23;20379;-85
2022/02/08 02:25:05;;;;;;;14.02;2.15;;;;;;;;;;6208783;23;20016;-85
2022/02/08 02:27:31;;;;;;;13.05;2.78;;;;;;;;;;6183034;23;20072;-85
2022/02/08 02:29:57;;;;;;;17.65;2.28;;;;;;;;;;6183914;23;20273;-85
2022/02/08 02:32:22;;;;;;;15.88;2.03;;;;;;;;;;6183410;23;20017;-85
2022/02/08 02:34:50;;;;;;;11.05;2.22;;;;;;;;;;6182493;23;20443;-85
2022/02/08 02:37:17;;;;;;;10.77;1.65;;;;;;;;;;6184031;23;20020;-85
2022/02/08 02:39:43;;;;;;;7.45;2.13;;;;;;;;;;6183588;23;20086;-85
2022/02/08 02:42:13;;;;;;;9.20;2.78;;;;;;;;;;6182365;23;20020;-85
2022/02/08 02:44:39;;;;;;;16.58;2.55;;;;;;;;;;6208118;23;20016;-85
2022/02/08 02:47:05;;;;;;;10.77;2.13;;;;;;;;;;6208500;23;20090;-85
2022/02/08 02:49:30;;;;;;;11.15;2.30;;;;;;;;;;6207052;23;20450;-85
2022/02/08 02:51:57;;;;;;;11.98;2.80;;;;;;;;;;6208054;23;20517;-85
2022/02/08 02:54:22;;;;;;;13.23;2.95;;;;;;;;;;6184803;23;20039;-85
2022/02/08 02:56:49;;;;;;;14.77;2.55;;;;;;;;;;6182750;23;20595;-85
2022/02/08 02:59:18;;;;;;;12.68;2.63;;;;;;;;;;6207749;23;20017;-84
2022/02/08 03:02:21;;;;;;;11.02;2.10;;;;;;;;;;6183287;23;20068;-85
2022/02/08 03:04:58;;;;;;;10.45;2.15;;;;;;;;;;6207114;23;20013;-85
2022/02/08 03:20:50;;;;;;;13.05;2.85;;;;;;;;;;6207792;23;20040;-82
2022/02/08 03:23:16;;;;;;;11.38;2.70;;;;;;;;;;6180146;23;20024;-81
2022/02/08 03:25:42;;;;;;;8.02;2.05;;;;;;;;;;6204516;23;20384;-82
2022/02/08 03:28:08;;;;;;;10.68;2.35;;;;;;;;;;6178954;23;20105;-81
2022/02/08 03:30:34;;;;;;;9.70;2.53;;;;;;;;;;6206999;23;20021;-82
2022/02/08 03:33:00;;;;;;;13.77;2.85;;;;;;;;;;6205920;23;20031;-82
2022/02/08 03:35:26;;;;;;;17.90;2.97;;;;;;;;;;6204757;23;20024;-81
2022/02/08 03:37:58;;;;;;;9.38;3.47;;;;;;;;;;6180267;23;20013;-82
2022/02/08 03:43:11;;;;;;;9.70;2.97;;;;;;;;;;6205715;23;20021;-81
2022/02/08 03:45:38;;;;;;;13.65;3.63;;;;;;;;;;6182242;23;20025;-81
2022/02/08 03:48:04;;;;;;;14.90;3.90;;;;;;;;;;6204728;23;20024;-82
2022/02/08 03:50:29;;;;;;;7.53;2.65;;;;;;;;;;6179577;23;20268;-81
2022/02/08 03:52:55;;;;;;;15.50;3.90;;;;;;;;;;6206195;23;20036;-82
2022/02/08 03:55:21;;;;;;;12.45;3.80;;;;;;;;;;6179831;23;20537;-81
2022/02/08 03:57:46;;;;;;;17.20;3.25;;;;;;;;;;6207721;23;20041;-85
2022/02/08 04:00:13;;;;;;;8.80;3.55;;;;;;;;;;6206543;23;20409;-84
2022/02/08 04:02:46;;;;;;;10.40;2.55;;;;;;;;;;6181229;23;20497;-85
2022/02/08 04:05:21;;;;;;;13.10;3.42;;;;;;;;;;6183800;23;20078;-85
2022/02/08 04:07:52;;;;;;;8.73;2.90;;;;;;;;;;6206718;23;20020;-85
2022/02/08 04:10:24;;;;;;;7.63;2.25;;;;;;;;;;6183671;23;20034;-84
2022/02/08 04:13:12;;;;;;;11.68;3.72;;;;;;;;;;6182467;23;20019;-85
2022/02/08 04:16:23;;;;;;;11.40;3.72;;;;;;;;;;6212489;23;20031;-85
2022/02/08 04:18:42;;;;;;;10.77;2.40;;;;;;;;;;6203543;23;20095;-84
2022/02/08 04:32:13;;;;;;;10.30;3.10;;;;;;;;;;6207581;23;20024;-85
2022/02/08 04:42:33;;;;;;;10.65;3.00;;;;;;;;;;6210310;23;20012;-85
2022/02/08 04:47:32;;;;;;;7.25;2.42;;;;;;;;;;6209310;23;20017;-85
2022/02/08 04:49:58;;;;;;;14.05;3.30;;;;;;;;;;6184600;23;20027;-85
2022/02/08 04:52:25;;;;;;;11.80;3.22;;;;;;;;;;6210299;23;20024;-84
2022/02/08 04:55:02;;;;;;;12.25;3.20;;;;;;;;;;6186057;23;20024;-84
2022/02/08 04:57:41;;;;;;;12.00;3.60;;;;;;;;;;6187665;23;20013;-85
2022/02/08 05:28:07;;;;;;;13.27;4.53;;;;;;;;;;6208923;23;20052;-84
2022/02/08 05:34:15;;;;;;;14.98;4.38;;;;;;;;;;6208442;23;20016;-84
2022/02/08 05:34:16;;;;;;;16.45;4.43;;;;;;;;;;6209192;23;20017;-84
2022/02/08 05:41:42;;;;;;;13.18;5.00;;;;;;;;;;6208107;23;20023;-84
2022/02/08 05:44:24;;;;;;;10.77;5.45;;;;;;;;;;6185688;23;20021;-84
2022/02/08 05:46:51;;;;;;;14.20;5.38;;;;;;;;;;6186507;23;20031;-82
2022/02/08 05:49:25;;;;;;;19.35;6.18;;;;;;;;;;6202022;23;20028;-80
2022/02/08 05:54:18;;;;;;;15.60;5.90;;;;;;;;;;6205499;23;20027;-82
2022/02/08 05:56:48;;;;;;;14.95;6.45;;;;;;;;;;6179420;23;20013;-82
2022/02/08 05:59:13;;;;;;;11.75;6.28;;;;;;;;;;6180532;23;20048;-82
2022/02/08 06:01:39;;;;;;;19.92;7.18;;;;;;;;;;6180102;23;20477;-82
2022/02/08 06:04:05;;;;;;;17.23;6.93;;;;;;;;;;6207731;23;20055;-83
2022/02/08 06:06:32;;;;;;;15.57;6.65;;;;;;;;;;6205976;23;20401;-83
2022/02/08 06:08:57;;;;;;;19.58;7.85;;;;;;;;;;6205664;23;20016;-81
2022/02/08 06:11:25;;;;;;;17.67;7.85;;;;;;;;;;6204909;23;20079;-81
2022/02/08 06:13:52;;;;;;;16.90;7.07;;;;;;;;;;6181141;23;20020;-84
2022/02/08 06:16:21;;;;;;;17.08;7.72;;;;;;;;;;6180074;23;20023;-81
2022/02/08 06:18:46;;;;;;;16.30;7.40;;;;;;;;;;6205218;23;20048;-82
2022/02/08 06:21:13;;;;;;;20.92;8.55;;;;;;;;;;6180023;23;20642;-81
2022/02/08 06:23:39;;;;;;;18.35;8.13;;;;;;;;;;6205577;23;20080;-81
2022/02/08 06:26:05;;;;;;;22.15;8.43;;;;;;;;;;6180479;23;20446;-81
2022/02/08 06:28:30;;;;;;;26.25;10.40;;;;;;;;;;6205562;23;20098;-82
2022/02/08 06:30:56;;;;;;;29.05;10.45;;;;;;;;;;6206546;23;20067;-82
2022/02/08 06:33:23;;;;;;;25.10;10.57;;;;;;;;;;6179966;23;20020;-82
2022/02/08 06:35:49;;;;;;;29.67;11.05;;;;;;;;;;6179650;23;20021;-81
2022/02/08 06:38:17;;;;;;;24.55;10.23;;;;;;;;;;6203441;23;20013;-82
2022/02/08 06:40:48;;;;;;;30.75;11.68;;;;;;;;;;6180890;23;20017;-81
2022/02/08 06:43:14;;;;;;;21.08;10.68;;;;;;;;;;6181409;23;20016;-81
2022/02/08 06:45:40;;;;;;;24.10;11.57;;;;;;;;;;6204147;23;20038;-81
2022/02/08 06:48:07;;;;;;;22.58;10.52;;;;;;;;;;6203988;23;20029;-81
2022/02/08 06:50:33;;;;;;;27.88;12.82;;;;;;;;;;6204564;23;20024;-81
2022/02/08 06:52:59;;;;;;;29.70;11.80;;;;;;;;;;6179972;23;20017;-81
2022/02/08 06:55:26;;;;;;;28.98;10.05;;;;;;;;;;6177791;23;20446;-82
2022/02/08 06:58:00;;;;;;;25.40;10.60;;;;;;;;;;6179487;23;20008;-81
2022/02/08 07:00:48;;;;;;;26.75;10.18;;;;;;;;;;6181048;23;20012;-82
2022/02/08 07:03:15;;;;;;;25.38;11.15;;;;;;;;;;6182627;23;20127;-81
2022/02/08 07:05:42;;;;;;;25.00;9.95;;;;;;;;;;6203049;23;20048;-82
2022/02/08 07:08:08;;;;;;;26.75;11.73;;;;;;;;;;6180791;23;20076;-82
2022/02/08 07:10:34;;;;;;;24.33;9.95;;;;;;;;;;6179631;23;20080;-82
2022/02/08 07:13:02;;;;;;;24.05;9.38;;;;;;;;;;6206134;23;20259;-82
2022/02/08 07:15:27;;;;;;;20.77;9.18;;;;;;;;;;6180715;23;20505;-81
2022/02/08 07:17:53;;;;;;;16.38;8.77;;;;;;;;;;6179795;23;20074;-80
2022/02/08 07:20:19;;;;;;;14.15;8.63;;;;;;;;;;6177742;23;20099;-81
2022/02/08 07:22:46;;;;;;;15.07;8.50;;;;;;;;;;6180580;23;20371;-81
2022/02/08 07:25:12;;;;;;;24.45;9.35;;;;;;;;;;6204351;23;20024;-81
2022/02/08 07:27:38;;;;;;;18.38;8.40;;;;;;;;;;6205660;23;20020;-81
2022/02/08 07:30:10;;;;;;;18.45;7.95;;;;;;;;;;6180766;23;20044;-81
2022/02/08 07:32:38;;;;;;;19.67;7.50;;;;;;;;;;6207480;23;20079;-81
2022/02/08 07:35:28;;;;;;;14.15;7.03;;;;;;;;;;6207047;23;20031;-82
2022/02/08 07:38:03;;;;;;;16.95;6.72;;;;;;;;;;6186829;23;20016;-83
2022/02/08 07:42:59;;;;;;;16.95;6.53;;;;;;;;;;6207206;23;20016;-82
2022/02/08 07:45:25;;;;;;;21.55;7.22;;;;;;;;;;6182358;23;20080;-81
2022/02/08 07:47:52;;;;;;;15.60;6.15;;;;;;;;;;6207283;23;20096;-81
2022/02/08 07:50:20;;;;;;;20.08;6.70;;;;;;;;;;6181576;23;20032;-81
2022/02/08 07:52:47;;;;;;;12.98;6.18;;;;;;;;;;6180191;23;20099;-82
2022/02/08 07:55:12;;;;;;;16.85;6.03;;;;;;;;;;6206456;23;20450;-82
2022/02/08 07:57:39;;;;;;;13.43;6.75;;;;;;;;;;6181857;23;20171;-82
2022/02/08 08:00:06;;;;;;;20.85;6.93;;;;;;;;;;6205946;23;20016;-81
2022/02/08 08:02:31;;;;;;;16.42;6.25;;;;;;;;;;6182453;23;20036;-82
2022/02/08 08:04:57;;;;;;;16.63;5.93;;;;;;;;;;6206860;23;20024;-82
2022/02/08 08:07:24;;;;;;;14.98;6.35;;;;;;;;;;6206961;23;20451;-82
2022/02/08 08:09:50;;;;;;;13.73;5.65;;;;;;;;;;6182289;23;20036;-82
2022/02/08 08:12:16;;;;;;;13.80;5.30;;;;;;;;;;6181863;23;20233;-82
2022/02/08 08:14:43;;;;;;;12.50;5.85;;;;;;;;;;6179189;23;20459;-81
2022/02/08 08:19:53;;;;;;;16.02;5.90;;;;;;;;;;6208167;23;20039;-81
2022/02/08 08:22:19;;;;;;;14.88;5.78;;;;;;;;;;6208978;23;20090;-82
2022/02/08 08:24:45;;;;;;;16.40;6.15;;;;;;;;;;6208798;23;20021;-82
2022/02/08 08:27:12;;;;;;;18.45;6.22;;;;;;;;;;6183703;23;20024;-82
2022/02/08 08:29:38;;;;;;;17.17;5.05;;;;;;;;;;6207518;23;20099;-81
2022/02/08 08:32:05;;;;;;;21.92;6.72;;;;;;;;;;6208698;23;20028;-83
2022/02/08 08:34:31;;;;;;;20.02;6.85;;;;;;;;;;6183881;23;20031;-82
2022/02/08 08:36:57;;;;;;;19.88;7.10;;;;;;;;;;6183672;23;20021;-82
2022/02/08 08:39:27;;;;;;;15.30;7.53;;;;;;;;;;6208435;23;20047;-82
2022/02/08 08:50:17;;;;;;;15.20;6.47;;;;;;;;;;6208681;23;20020;-82
2022/02/08 08:52:45;;;;;;;14.40;6.63;;;;;;;;;;6186925;23;20409;-83
2022/02/08 08:55:13;;;;;;;17.10;6.60;;;;;;;;;;6184270;23;20044;-82
2022/02/08 08:57:38;;;;;;;19.25;7.80;;;;;;;;;;6207825;23;20013;-82
2022/02/08 09:00:09;;;;;;;17.40;6.90;;;;;;;;;;6207834;23;20119;-82
2022/02/08 09:02:35;;;;;;;13.65;7.28;;;;;;;;;;6208584;23;20017;-82
2022/02/08 09:05:03;;;;;;;14.57;6.75;;;;;;;;;;6183307;23;20020;-82
2022/02/08 09:07:29;;;;;;;17.75;6.47;;;;;;;;;;6183983;23;20091;-82
2022/02/08 09:09:59;;;;;;;15.05;6.05;;;;;;;;;;6183644;23;20102;-82
2022/02/08 09:12:26;;;;;;;12.93;6.18;;;;;;;;;;6208053;23;20255;-83
2022/02/08 09:20:43;;;;;;;17.25;6.63;;;;;;;;;;6208083;23;20025;-82
2022/02/08 09:23:37;;;;;;;13.50;5.85;;;;;;;;;;6208282;23;20020;-82
2022/02/08 09:26:13;;;;;;;10.50;5.57;;;;;;;;;;6214358;23;20027;-83
2022/02/08 09:28:43;;;;;;;11.50;5.68;;;;;;;;;;6185496;23;20019;-83
2022/02/08 09:31:13;;;;;;;10.73;5.28;;;;;;;;;;6209704;23;20032;-83
2022/02/08 09:33:39;;;;;;;9.27;4.97;;;;;;;;;;6183145;23;20256;-83
2022/02/08 09:36:05;;;;;;;12.23;5.28;;;;;;;;;;6205145;23;20501;-83
2022/02/08 09:38:31;;;;;;;12.07;5.57;;;;;;;;;;6182315;23;20016;-83
2022/02/08 09:41:01;;;;;;;13.05;5.95;;;;;;;;;;6208075;23;20575;-83
2022/02/08 09:43:29;;;;;;;6.13;4.47;;;;;;;;;;6178281;23;20016;-84
2022/02/08 09:45:59;;;;;;;6.75;4.70;;;;;;;;;;6183499;23;20024;-83
2022/02/08 09:48:38;;;;;;;8.73;3.83;;;;;;;;;;6207537;23;20763;-82
2022/02/08 09:51:03;;;;;;;7.72;4.03;;;;;;;;;;6211433;23;20021;-83
2022/02/08 09:53:32;;;;;;;10.15;4.78;;;;;;;;;;6208791;23;20091;-83
2022/02/08 09:55:58;;;;;;;6.97;4.45;;;;;;;;;;6209878;23;20020;-82
2022/02/08 09:58:24;;;;;;;9.60;4.25;;;;;;;;;;6208877;23;20031;-83
2022/02/08 10:00:49;;;;;;;12.60;4.32;;;;;;;;;;6185267;23;20450;-83
2022/02/08 10:03:17;;;;;;;9.90;3.88;;;;;;;;;;6183784;23;20031;-82
2022/02/08 10:05:54;;;;;;;6.57;3.45;;;;;;;;;;6183136;23;20043;-82
2022/02/08 10:08:21;;;;;;;10.10;3.90;;;;;;;;;;6184655;23;20020;-84
2022/02/08 10:10:47;;;;;;;9.65;4.38;;;;;;;;;;6183997;23;20017;-83
2022/02/08 10:19:08;;;;;;;4.30;2.80;;;;;;;;;;6211448;23;20594;-82
2022/02/08 10:24:09;;;;;;;5.70;3.15;;;;;;;;;;6210379;23;20020;-83
2022/02/08 10:26:57;;;;;;;7.80;3.95;;;;;;;;;;6212229;23;20047;-83
2022/02/08 10:40:06;;;;;;;9.63;4.55;;;;;;;;;;6209806;23;20028;-83
2022/02/08 10:42:33;;;;;;;8.80;5.15;;;;;;;;;;6187309;23;20016;-84
2022/02/08 10:45:00;;;;;;;7.40;4.53;;;;;;;;;;6186417;23;20354;-85
2022/02/08 10:47:41;;;;;;;6.63;4.72;;;;;;;;;;6188565;23;20016;-86
2022/02/08 10:50:09;;;;;;;8.30;4.95;;;;;;;;;;6184580;23;20031;-84
2022/02/08 10:52:38;;;;;;;10.05;5.30;;;;;;;;;;6211793;23;20496;-83
2022/02/08 10:55:21;;;;;;;10.48;5.18;;;;;;;;;;6185176;23;20115;-82
2022/02/08 10:57:58;;;;;;;8.77;4.95;;;;;;;;;;6212409;23;20020;-83
2022/02/08 11:01:11;;;;;;;10.02;5.00;;;;;;;;;;6211016;23;20230;-84
2022/02/08 11:03:23;;;;;;;10.77;5.28;;;;;;;;;;6187114;23;20545;-82
2022/02/08 11:06:07;;;;;;;13.68;5.35;;;;;;;;;;6206389;23;20031;-82
2022/02/08 11:09:19;;;;;;;11.80;5.75;;;;;;;;;;6208387;23;20488;-81
2022/02/08 11:12:02;;;;;;;8.70;5.00;;;;;;;;;;6206939;23;20017;-82
2022/02/08 11:14:41;;;;;;;8.38;4.68;;;;;;;;;;6207727;23;20013;-82
2022/02/08 11:19:49;;;;;;;8.18;4.78;;;;;;;;;;6207475;23;20020;-81
2022/02/08 11:22:28;;;;;;;8.02;4.57;;;;;;;;;;6206525;23;20048;-82
2022/02/08 11:25:05;;;;;;;8.82;4.80;;;;;;;;;;6184316;23;20031;-83
2022/02/08 11:27:41;;;;;;;8.20;4.68;;;;;;;;;;6183603;23;20017;-82
2022/02/08 11:30:16;;;;;;;7.13;4.88;;;;;;;;;;6183443;23;20387;-82
2022/02/08 12:02:43;;;;;;;7.63;3.53;;;;;;;;;;6208900;23;20455;-82
2022/02/08 12:05:26;;;;;;;30.90;21.20;;;;;;;;;;6186697;23;20024;-83
2022/02/08 12:07:57;;;;;;;5.05;3.60;;;;;;;;;;6186385;23;20020;-84
2022/02/08 12:13:17;;;;;;;7.40;3.63;;;;;;;;;;6210150;23;20091;-84
2022/02/08 12:30:36;;;;;;;6.72;4.35;;;;;;;;;;6211034;23;20097;-84
2022/02/08 12:32:56;;;;;;;7.28;3.75;;;;;;;;;;6212551;23;20530;-85
2022/02/08 12:50:02;;;;;;;;;;;;;;;;;;6211768;23;20358;-86
2022/02/08 12:55:30;;;;;;;7.90;4.95;;;;;;;;;;6210861;23;20032;-85
2022/02/08 12:58:16;;;;;;;8.70;4.85;;;;;;;;;;6209179;23;20025;-86
2022/02/08 13:01:08;;;;;;;7.57;4.95;;;;;;;;;;6213626;23;20490;-85
2022/02/08 13:15:02;;;;;;;10.07;5.65;;;;;;;;;;6208655;23;20155;-84
2022/02/08 14:06:00;;;;;;;13.40;7.50;;;;;;;;;;6210066;23;20021;-84
2022/02/08 14:08:38;;;;;;;11.13;7.47;;;;;;;;;;6188097;23;20024;-83
2022/02/08 14:11:38;;;;;;;11.15;7.35;;;;;;;;;;6212040;23;20119;-83
2022/02/08 14:19:31;;;;;;;15.55;7.97;;;;;;;;;;6207015;23;20143;-83
2022/02/08 14:22:12;;;;;;;11.57;7.65;;;;;;;;;;6211323;23;20024;-85
2022/02/08 14:29:52;;;;;;;15.10;8.30;;;;;;;;;;6207621;23;20023;-85
2022/02/08 14:48:57;;;;;;;11.82;7.07;;;;;;;;;;6208571;23;20517;-85
2022/02/08 14:57:37;;;;;;;12.73;8.07;;;;;;;;;;6209337;23;20100;-84
2022/02/08 15:00:12;;;;;;;10.38;7.68;;;;;;;;;;6207054;23;20124;-84
2022/02/08 15:13:05;;;;;;;8.70;7.20;;;;;;;;;;6207256;23;20450;-83
2022/02/08 15:15:42;;;;;;;8.30;6.55;;;;;;;;;;6181865;23;20071;-84
2022/02/08 15:18:08;;;;;;;10.32;8.13;;;;;;;;;;6185124;23;20521;-84
2022/02/08 15:20:34;;;;;;;10.48;7.32;;;;;;;;;;6182455;23;20017;-85
2022/02/08 15:23:02;;;;;;;10.88;8.40;;;;;;;;;;6208789;23;20021;-84
2022/02/08 15:25:30;;;;;;;8.40;6.43;;;;;;;;;;6206617;23;20365;-84
2022/02/08 15:28:01;;;;;;;13.10;7.35;;;;;;;;;;6208985;23;20024;-84
2022/02/08 15:30:28;;;;;;;10.05;8.07;;;;;;;;;;6182705;23;20095;-84
2022/02/08 15:32:53;;;;;;;8.82;7.03;;;;;;;;;;6180964;23;20016;-84
2022/02/08 15:35:19;;;;;;;8.30;7.28;;;;;;;;;;6207833;23;20462;-84
2022/02/08 15:37:45;;;;;;;10.95;7.00;;;;;;;;;;6205276;23;20070;-85
2022/02/08 15:40:13;;;;;;;7.82;7.03;;;;;;;;;;6209225;23;20051;-84
2022/02/08 15:42:41;;;;;;;9.88;6.55;;;;;;;;;;6182033;23;20023;-84
2022/02/08 15:45:28;;;;;;;7.60;6.28;;;;;;;;;;6208207;23;20529;-84
2022/02/08 15:47:56;;;;;;;8.43;6.45;;;;;;;;;;6205603;23;20103;-85
2022/02/08 15:50:45;;;;;;;8.93;6.43;;;;;;;;;;6231765;23;20024;-84
2022/02/08 15:53:24;;;;;;;8.63;6.85;;;;;;;;;;6207136;23;20443;-84
2022/02/08 15:58:23;;;;;;;7.43;6.57;;;;;;;;;;6206871;23;20295;-84
2022/02/08 16:01:04;;;;;;;11.07;7.45;;;;;;;;;;6184643;23;20442;-84
2022/02/08 16:08:53;;;;;;;10.27;6.18;;;;;;;;;;6207005;23;20028;-84
2022/02/08 16:13:55;;;;;;;11.30;7.40;;;;;;;;;;6206856;23;20324;-84
2022/02/08 16:16:44;;;;;;;9.05;6.82;;;;;;;;;;6209210;23;20098;-84
2022/02/08 16:24:32;;;;;;;11.05;7.03;;;;;;;;;;6210184;23;20092;-85
2022/02/08 16:27:16;;;;;;;10.77;8.30;;;;;;;;;;6187216;23;20088;-84
2022/02/08 16:30:18;;;;;;;9.57;7.22;;;;;;;;;;6186274;23;20038;-85
2022/02/08 16:56:49;;;;;;;11.20;7.93;;;;;;;;;;6210380;23;20096;-85
2022/02/08 16:59:24;;;;;;;8.57;7.00;;;;;;;;;;6213585;23;20020;-85
2022/02/08 17:01:51;;;;;;;11.52;7.63;;;;;;;;;;6186037;23;20020;-83
2022/02/08 17:04:17;;;;;;;9.60;7.15;;;;;;;;;;6208768;23;20025;-84
2022/02/08 17:06:42;;;;;;;10.73;7.47;;;;;;;;;;6188033;23;20009;-85
2022/02/08 17:09:13;;;;;;;11.80;8.25;;;;;;;;;;6187536;23;20016;-85
2022/02/08 17:11:48;;;;;;;10.90;8.73;;;;;;;;;;6212672;23;20085;-85
2022/02/08 17:14:37;;;;;;;12.15;8.15;;;;;;;;;;6189915;23;20020;-85
2022/02/08 17:17:27;;;;;;;14.05;8.23;;;;;;;;;;6212668;23;20065;-86
2022/02/08 17:34:27;;;;;;;11.93;8.35;;;;;;;;;;6214706;23;20013;-85
2022/02/08 17:49:38;;;;;;;13.80;11.57;;;;;;;;;;6211043;23;20024;-86
2022/02/08 17:52:04;;;;;;;13.80;11.80;;;;;;;;;;6181971;23;20027;-85
2022/02/08 17:54:30;;;;;;;14.20;12.43;;;;;;;;;;6183065;23;20020;-85
2022/02/08 17:56:57;;;;;;;13.15;11.05;;;;;;;;;;6208466;23;20446;-84
2022/02/08 17:59:24;;;;;;;15.73;11.23;;;;;;;;;;6182980;23;20300;-85
2022/02/08 18:01:50;;;;;;;12.20;10.55;;;;;;;;;;6184224;23;20076;-85
2022/02/08 18:04:17;;;;;;;18.27;11.45;;;;;;;;;;6208195;23;20032;-85
2022/02/08 18:06:43;;;;;;;21.17;13.20;;;;;;;;;;6183425;23;20346;-85
2022/02/08 18:09:08;;;;;;;12.52;11.15;;;;;;;;;;6210088;23;20020;-85
2022/02/08 18:11:39;;;;;;;15.77;12.55;;;;;;;;;;6207564;23;20012;-84
2022/02/08 18:14:08;;;;;;;14.13;11.15;;;;;;;;;;6210047;23;20027;-86
2022/02/08 18:16:35;;;;;;;12.07;10.15;;;;;;;;;;6183621;23;20495;-84
2022/02/08 18:19:09;;;;;;;13.18;10.13;;;;;;;;;;6193557;23;20047;-84
2022/02/08 18:21:46;;;;;;;14.27;9.93;;;;;;;;;;6197308;23;20012;-85
2022/02/08 18:24:26;;;;;;;15.90;10.38;;;;;;;;;;6195293;23;20386;-85
2022/02/08 19:23:39;;;;;;;21.60;16.83;;;;;;;;;;6094541;23;20054;-84
2022/02/08 19:26:06;;;;;;;18.05;13.73;;;;;;;;;;6145576;23;20041;-83
2022/02/08 19:28:32;;;;;;;20.33;15.15;;;;;;;;;;6111565;23;20025;-84
2022/02/08 19:30:58;;;;;;;20.10;14.50;;;;;;;;;;6163113;23;20016;-83
2022/02/08 19:33:26;;;;;;;22.30;15.82;;;;;;;;;;6206152;23;20068;-83
2022/02/08 19:35:54;;;;;;;23.27;17.17;;;;;;;;;;6184482;23;20083;-83
2022/02/08 19:38:25;;;;;;;19.65;13.85;;;;;;;;;;6181479;23;20017;-83
2022/02/08 19:40:50;;;;;;;22.80;15.40;;;;;;;;;;6183965;23;20401;-84
2022/02/08 19:43:16;;;;;;;25.42;16.85;;;;;;;;;;6209566;23;20048;-84
2022/02/08 19:45:44;;;;;;;22.88;16.15;;;;;;;;;;6208029;23;20074;-84
2022/02/08 19:48:11;;;;;;;21.90;14.50;;;;;;;;;;6184744;23;20032;-84
2022/02/08 19:50:39;;;;;;;21.27;16.70;;;;;;;;;;6208225;23;20108;-85
2022/02/08 19:53:07;;;;;;;22.17;17.30;;;;;;;;;;6208938;23;20393;-84
2022/02/08 19:58:12;;;;;;;20.80;15.43;;;;;;;;;;6208517;23;20024;-85
2022/02/08 20:00:43;;;;;;;24.10;16.42;;;;;;;;;;6209569;23;20013;-84
2022/02/08 20:03:10;;;;;;;23.02;14.82;;;;;;;;;;6184907;23;20020;-84
2022/02/08 20:05:37;;;;;;;26.98;19.08;;;;;;;;;;6208528;23;20020;-84
2022/02/08 20:08:05;;;;;;;21.48;15.75;;;;;;;;;;6209205;23;20017;-85
2022/02/08 20:10:31;;;;;;;23.50;16.95;;;;;;;;;;6181479;23;20036;-84
2022/02/08 20:12:57;;;;;;;22.23;16.45;;;;;;;;;;6184261;23;20021;-84
2022/02/08 20:15:24;;;;;;;22.58;15.88;;;;;;;;;;6209914;23;20048;-84
2022/02/08 20:17:52;;;;;;;22.35;14.63;;;;;;;;;;6213065;23;20281;-84
2022/02/08 20:20:18;;;;;;;23.52;16.98;;;;;;;;;;6211558;23;20089;-83
2022/02/08 20:22:50;;;;;;;23.92;17.25;;;;;;;;;;6209952;23;20016;-84
2022/02/08 20:25:19;;;;;;;24.45;16.50;;;;;;;;;;6184698;23;20475;-84
2022/02/08 20:27:54;;;;;;;21.67;15.70;;;;;;;;;;6185258;23;20024;-84
2022/02/08 20:30:25;;;;;;;22.90;16.63;;;;;;;;;;6210208;23;20052;-84
2022/02/08 20:32:52;;;;;;;20.65;15.00;;;;;;;;;;6211587;23;20429;-84
2022/02/08 20:35:20;;;;;;;22.48;15.80;;;;;;;;;;6185122;23;20036;-84
2022/02/08 20:37:47;;;;;;;22.00;15.50;;;;;;;;;;6210170;23;20423;-84
2022/02/08 20:40:13;;;;;;;22.15;16.25;;;;;;;;;;6188437;23;20017;-85
2022/02/08 20:42:39;;;;;;;23.65;16.63;;;;;;;;;;6209908;23;20095;-84
2022/02/08 20:45:06;;;;;;;25.83;16.95;;;;;;;;;;6184581;23;20087;-84
2022/02/08 20:47:33;;;;;;;23.42;15.52;;;;;;;;;;6211088;23;20043;-83
2022/02/08 20:50:10;;;;;;;23.90;15.98;;;;;;;;;;6159179;23;20784;-84
2022/02/08 20:52:41;;;;;;;23.45;16.08;;;;;;;;;;6210137;23;20020;-84
2022/02/08 20:55:10;;;;;;;20.00;15.48;;;;;;;;;;6184213;23;20725;-84
2022/02/08 20:57:37;;;;;;;23.95;16.27;;;;;;;;;;6183560;23;20051;-84
2022/02/08 21:00:11;;;;;;;22.25;15.40;;;;;;;;;;6183737;23;20068;-85
2022/02/08 21:02:39;;;;;;;20.58;14.75;;;;;;;;;;6202822;23;20425;-84
2022/02/08 21:05:30;;;;;;;24.73;16.48;;;;;;;;;;6206141;23;20049;-83
2022/02/08 21:07:52;;;;;;;22.33;16.23;;;;;;;;;;6209442;23;20035;-84
2022/02/08 21:10:22;;;;;;;21.88;15.85;;;;;;;;;;6207422;23;20096;-89
2022/02/08 21:15:26;;;;;;;29.85;16.40;;;;;;;;;;6208840;23;20017;-86
2022/02/08 21:17:51;;;;;;;23.35;16.45;;;;;;;;;;6233228;23;20025;-86
2022/02/08 21:20:17;;;;;;;23.05;15.27;;;;;;;;;;6207933;23;20092;-87
2022/02/08 21:22:43;;;;;;;24.63;16.42;;;;;;;;;;6207238;23;20020;-87
2022/02/08 21:25:09;;;;;;;25.20;16.45;;;;;;;;;;6207357;23;20028;-86
2022/02/08 21:27:38;;;;;;;23.35;15.45;;;;;;;;;;6180596;23;20023;-86
2022/02/08 21:43:32;;;;;;;23.50;14.98;;;;;;;;;;6206983;23;20409;-86
2022/02/08 21:47:22;;;;;;;20.88;13.32;;;;;;;;;;6129887;23;20060;-87
2022/02/08 21:54:34;;;;;;;18.92;12.80;;;;;;;;;;6208078;23;20016;-86
2022/02/08 21:57:01;;;;;;;20.88;13.05;;;;;;;;;;6208040;23;20036;-86
2022/02/08 21:59:28;;;;;;;20.52;13.68;;;;;;;;;;6183170;23;20025;-86
2022/02/08 22:01:55;;;;;;;20.83;13.82;;;;;;;;;;6158469;23;20039;-87
2022/02/08 22:04:21;;;;;;;20.52;14.00;;;;;;;;;;6181302;23;20021;-87
2022/02/08 22:06:49;;;;;;;21.88;15.00;;;;;;;;;;6181746;23;20458;-87